createdAt,value
2018-02-10T00:01:13.986Z,64.90
2018-02-10T00:03:47.252Z,64.49
2018-02-10T00:06:17.967Z,66.51
2018-02-10T00:08:51.111Z,66.95
2018-02-10T00:11:22.663Z,66.37
2018-02-10T00:16:39.201Z,68.78
2018-02-10T00:19:17.233Z,69.46
2018-02-10T00:21:50.105Z,69.52
2018-02-10T00:24:22.837Z,70.74
2018-02-10T00:26:53.252Z,70.66
2018-02-10T00:29:25.536Z,70.35
2018-02-10T00:31:56.499Z,69.61
2018-02-10T00:34:27.978Z,70.64
2018-02-10T00:39:48.374Z,71.30
2018-02-10T00:44:56.543Z,73.71
2018-02-10T00:47:30.119Z,72.96
2018-02-10T00:58:27.310Z,73.88
2018-02-10T01:00:58.285Z,71.95
2018-02-10T01:03:32.142Z,73.57
2018-02-10T01:06:03.536Z,74.12
2018-02-10T01:14:30.511Z,73.58
2018-02-10T01:17:04.934Z,72.98
2018-02-10T01:26:34.152Z,73.24
2018-02-10T01:29:17.160Z,72.65
2018-02-10T01:31:54.609Z,72.10
2018-02-10T01:40:24.342Z,69.51
2018-02-10T01:53:15.260Z,70.13
2018-02-10T01:55:46.774Z,69.60
2018-02-10T01:58:17.712Z,71.46
2018-02-10T02:00:48.112Z,71.13
2018-02-10T02:03:20.190Z,71.70
2018-02-10T02:12:59.609Z,72.46
2018-02-10T02:15:32.024Z,70.95
2018-02-10T02:18:05.867Z,70.58
2018-02-10T02:20:42.486Z,72.15
2018-02-10T02:23:13.587Z,71.09
2018-02-10T02:28:31.960Z,71.96
2018-02-10T02:34:02.377Z,71.84
2018-02-10T02:36:33.973Z,70.54
2018-02-10T02:39:06.841Z,71.04
2018-02-10T02:41:37.651Z,70.21
2018-02-10T02:44:12.551Z,69.04
2018-02-10T02:46:50.078Z,68.63
2018-02-10T02:52:04.080Z,69.06
2018-02-10T02:54:35.914Z,70.20
2018-02-10T02:57:09.140Z,70.35
2018-02-10T02:59:40.125Z,70.21
2018-02-10T03:02:18.042Z,69.16
2018-02-10T03:07:30.567Z,68.32
2018-02-10T03:10:06.843Z,67.63
2018-02-10T03:12:39.335Z,68.30
2018-02-10T03:15:15.211Z,68.46
2018-02-10T03:17:46.525Z,68.90
2018-02-10T03:20:22.263Z,67.62
2018-02-10T03:22:58.837Z,67.03
2018-02-10T03:25:53.604Z,66.43
2018-02-10T03:28:29.679Z,66.93
2018-02-10T03:31:09.402Z,67.36
2018-02-10T03:36:34.857Z,68.35
2018-02-10T03:45:00.975Z,68.41
2018-02-10T03:47:33.635Z,67.85
2018-02-10T03:50:05.138Z,68.03
2018-02-10T03:52:38.892Z,68.51
2018-02-10T03:55:09.670Z,69.23
2018-02-10T03:57:42.661Z,68.96
2018-02-10T04:06:03.167Z,69.06
2018-02-10T04:08:42.308Z,69.78
2018-02-10T04:11:17.863Z,69.08
2018-02-10T04:18:11.259Z,68.48
2018-02-10T04:20:45.860Z,68.65
2018-02-10T04:23:17.878Z,68.95
2018-02-10T04:25:51.094Z,68.73
2018-02-10T04:28:26.052Z,68.16
2018-02-10T04:30:57.357Z,67.85
2018-02-10T04:36:50.107Z,67.63
2018-02-10T04:39:31.592Z,67.91
2018-02-10T04:42:03.514Z,67.62
2018-02-10T04:47:35.481Z,67.14
2018-02-10T04:50:12.521Z,66.60
2018-02-10T04:52:44.572Z,67.93
2018-02-10T04:55:15.741Z,68.77
2018-02-10T04:57:52.291Z,68.28
2018-02-10T05:00:43.339Z,69.20
2018-02-10T05:06:08.964Z,68.41
2018-02-10T05:08:40.204Z,69.22
2018-02-10T05:11:10.563Z,69.38
2018-02-10T05:13:45.780Z,69.28
2018-02-10T05:16:20.237Z,70.30
2018-02-10T05:18:53.981Z,68.91
2018-02-10T05:21:43.654Z,68.10
2018-02-10T05:29:53.920Z,70.62
2018-02-10T05:32:34.928Z,70.21
2018-02-10T05:41:49.980Z,70.16
2018-02-10T05:44:21.816Z,69.13
2018-02-10T05:46:55.805Z,69.00
2018-02-10T05:49:32.019Z,68.92
2018-02-10T05:52:08.337Z,69.05
2018-02-10T05:54:47.962Z,68.22
2018-02-10T05:57:27.210Z,68.09
2018-02-10T06:05:30.768Z,68.63
2018-02-10T06:08:07.712Z,70.03
2018-02-10T06:10:43.553Z,70.97
2018-02-10T06:13:22.568Z,71.18
2018-02-10T06:15:59.376Z,70.55
2018-02-10T06:18:31.711Z,70.36
2018-02-10T06:21:05.263Z,70.45
2018-02-10T06:23:42.157Z,69.61
2018-02-10T06:26:14.529Z,68.97
2018-02-10T06:43:07.662Z,70.85
2018-02-10T06:45:47.664Z,69.57
2018-02-10T06:51:11.602Z,70.87
2018-02-10T06:53:46.826Z,69.38
2018-02-10T06:56:24.375Z,69.92
2018-02-10T06:58:59.604Z,70.26
2018-02-10T07:01:33.994Z,71.22
2018-02-10T07:04:05.708Z,71.15
2018-02-10T07:06:43.684Z,70.53
2018-02-10T07:09:15.913Z,68.80
2018-02-10T07:11:47.926Z,67.82
2018-02-10T07:14:26.956Z,67.53
2018-02-10T07:23:03.222Z,69.39
2018-02-10T07:25:33.835Z,68.71
2018-02-10T07:28:09.412Z,68.38
2018-02-10T07:30:41.087Z,68.75
2018-02-10T07:33:21.564Z,69.42
2018-02-10T07:35:54.247Z,68.13
2018-02-10T07:38:28.753Z,67.94
2018-02-10T07:41:03.892Z,68.41
2018-02-10T07:43:38.239Z,68.88
2018-02-10T07:48:58.695Z,68.65
2018-02-10T07:54:07.701Z,69.50
2018-02-10T07:56:49.287Z,70.53
2018-02-10T07:59:21.571Z,69.59
2018-02-10T08:02:02.785Z,69.73
2018-02-10T08:10:29.757Z,69.77
2018-02-10T08:13:01.044Z,70.44
2018-02-10T08:15:32.163Z,70.94
2018-02-10T08:18:11.780Z,71.15
2018-02-10T08:20:45.624Z,70.14
2018-02-10T08:25:58.903Z,71.20
2018-02-10T08:28:32.400Z,71.33
2018-02-10T08:31:04.278Z,70.97
2018-02-10T08:33:43.270Z,71.09
2018-02-10T08:36:14.518Z,71.96
2018-02-10T08:38:44.987Z,71.51
2018-02-10T08:41:16.194Z,72.09
2018-02-10T08:43:54.269Z,71.98
2018-02-10T08:56:33.259Z,71.91
2018-02-10T08:59:12.176Z,72.81
2018-02-10T09:01:56.486Z,72.73
2018-02-10T09:04:28.934Z,72.42
2018-02-10T09:07:00.306Z,71.60
2018-02-10T09:09:43.960Z,71.91
2018-02-10T09:21:07.001Z,71.82
2018-02-10T09:23:38.531Z,71.69
2018-02-10T09:26:12.264Z,71.80
2018-02-10T09:35:09.131Z,70.90
2018-02-10T09:37:41.915Z,69.94
2018-02-10T09:40:17.870Z,69.87
2018-02-10T09:42:55.378Z,70.15
2018-02-10T09:45:29.269Z,70.34
2018-02-10T09:50:40.883Z,70.29
2018-02-10T09:53:12.190Z,68.81
2018-02-10T09:55:45.081Z,69.70
2018-02-10T09:58:24.792Z,69.49
2018-02-10T10:01:02.513Z,68.32
2018-02-10T10:10:57.598Z,67.15
2018-02-10T10:13:28.200Z,67.09
2018-02-10T10:16:09.456Z,67.11
2018-02-10T10:21:17.154Z,68.53
2018-02-10T10:23:49.490Z,67.71
2018-02-10T10:26:34.100Z,67.17
2018-02-10T10:29:07.616Z,66.33
2018-02-10T10:40:19.469Z,67.23
2018-02-10T10:43:05.830Z,66.83
2018-02-10T10:45:38.286Z,66.43
2018-02-10T10:48:13.898Z,67.41
2018-02-10T10:50:50.859Z,67.18
2018-02-10T10:53:30.232Z,66.76
2018-02-10T11:00:08.939Z,67.87
2018-02-10T11:02:40.253Z,67.18
2018-02-10T11:05:13.794Z,67.25
2018-02-10T11:07:48.982Z,68.08
2018-02-10T11:10:23.754Z,68.08
2018-02-10T11:12:55.249Z,67.82
2018-02-10T11:15:38.691Z,68.06
2018-02-10T11:18:22.173Z,68.75
2018-02-10T11:20:56.505Z,68.35
2018-02-10T11:23:31.633Z,69.12
2018-02-10T11:26:02.926Z,70.02
2018-02-10T11:28:33.295Z,70.32
2018-02-10T11:31:04.873Z,70.14
2018-02-10T11:33:35.344Z,70.82
2018-02-10T11:36:06.895Z,70.37
2018-02-10T11:38:37.865Z,71.48
2018-02-10T11:41:08.703Z,71.69
2018-02-10T11:43:46.294Z,72.10
2018-02-10T11:52:12.263Z,73.02
2018-02-10T12:06:04.354Z,73.47
2018-02-10T12:08:37.248Z,75.30
2018-02-10T12:11:08.109Z,75.11
2018-02-10T12:13:40.649Z,75.64
2018-02-10T12:16:12.174Z,75.07
2018-02-10T12:18:42.793Z,74.90
2018-02-10T12:21:13.295Z,74.77
2018-02-10T12:23:44.004Z,75.49
2018-02-10T12:26:14.942Z,75.69
2018-02-10T12:28:45.448Z,75.60
2018-02-10T12:31:23.513Z,76.01
2018-02-10T12:33:59.764Z,76.32
2018-02-10T12:36:30.422Z,75.64
2018-02-10T12:39:01.979Z,75.29
2018-02-10T12:41:32.883Z,73.96
2018-02-10T12:44:04.184Z,75.92
2018-02-10T12:46:34.700Z,75.34
2018-02-10T12:49:11.192Z,73.83
2018-02-10T12:51:42.294Z,74.00
2018-02-10T12:54:31.050Z,75.84
2018-02-10T12:57:04.414Z,76.63
2018-02-10T12:59:38.886Z,76.57
2018-02-10T13:04:47.555Z,75.29
2018-02-10T13:07:44.362Z,76.61
2018-02-10T13:10:17.809Z,77.12
2018-02-10T13:12:55.377Z,77.08
2018-02-10T13:15:26.585Z,75.63
2018-02-10T13:17:58.755Z,74.17
2018-02-10T13:20:36.566Z,73.91
2018-02-10T13:23:26.790Z,74.19
2018-02-10T13:26:02.591Z,73.14
2018-02-10T13:28:43.311Z,73.14
2018-02-10T13:31:30.179Z,73.14
2018-02-10T13:34:20.668Z,73.60
2018-02-10T13:36:53.996Z,73.66
2018-02-10T13:39:30.730Z,73.43
2018-02-10T13:42:05.630Z,73.82
2018-02-10T13:44:36.433Z,73.37
2018-02-10T13:47:15.607Z,72.76
2018-02-10T13:49:46.210Z,72.46
2018-02-10T13:52:20.209Z,72.71
2018-02-10T13:55:02.265Z,72.34
2018-02-10T13:57:33.175Z,72.66
2018-02-10T14:00:08.392Z,71.96
2018-02-10T14:02:39.654Z,71.81
2018-02-10T14:05:10.829Z,72.62
2018-02-10T14:07:50.667Z,72.52
2018-02-10T14:10:22.876Z,72.92
2018-02-10T14:15:25.547Z,73.48
2018-02-10T14:17:56.365Z,73.47
2018-02-10T14:20:28.410Z,73.29
2018-02-10T14:23:00.198Z,73.29
2018-02-10T14:25:31.260Z,73.04
2018-02-10T14:28:09.728Z,73.08
2018-02-10T14:30:42.343Z,73.23
2018-02-10T14:33:13.495Z,73.58
2018-02-10T14:35:45.255Z,73.81
2018-02-10T14:38:18.826Z,73.40
2018-02-10T14:40:51.720Z,73.56
2018-02-10T14:43:28.265Z,72.96
2018-02-10T14:46:14.266Z,72.41
2018-02-10T14:48:47.958Z,72.33
2018-02-10T14:51:19.191Z,72.35
2018-02-10T14:53:50.435Z,71.87
2018-02-10T14:56:21.747Z,71.58
2018-02-10T14:58:54.467Z,71.50
2018-02-10T15:04:04.654Z,72.63
2018-02-10T15:06:37.040Z,72.51
2018-02-10T15:09:08.399Z,72.42
2018-02-10T15:11:38.994Z,72.53
2018-02-10T15:14:10.654Z,72.14
2018-02-10T15:16:42.931Z,71.92
2018-02-10T15:19:13.859Z,72.35
2018-02-10T15:21:51.022Z,72.03
2018-02-10T15:24:23.692Z,71.92
2018-02-10T15:26:55.210Z,71.74
2018-02-10T15:29:25.911Z,71.79
2018-02-10T15:34:08.804Z,72.00
2018-02-10T15:36:40.074Z,72.29
2018-02-10T15:39:16.036Z,72.03
2018-02-10T15:41:47.562Z,73.06
2018-02-10T15:44:18.448Z,72.70
2018-02-10T15:46:50.378Z,73.10
2018-02-10T15:49:20.843Z,73.15
2018-02-10T15:52:03.093Z,72.91
2018-02-10T15:54:39.591Z,72.41
2018-02-10T15:57:10.488Z,72.84
2018-02-10T15:59:49.324Z,72.61
2018-02-10T16:05:02.918Z,72.04
2018-02-10T16:07:33.572Z,71.43
2018-02-10T16:10:05.146Z,72.14
2018-02-10T16:12:38.814Z,71.97
2018-02-10T16:15:13.585Z,71.84
2018-02-10T16:17:48.560Z,71.52
2018-02-10T16:20:20.551Z,71.39
2018-02-10T16:22:59.987Z,70.92
2018-02-10T16:25:36.246Z,70.87
2018-02-10T16:28:15.127Z,70.65
2018-02-10T16:30:50.957Z,70.33
2018-02-10T16:33:26.311Z,70.38
2018-02-10T16:36:10.157Z,69.78
2018-02-10T16:38:44.915Z,69.30
2018-02-10T16:41:19.293Z,69.30
2018-02-10T16:43:50.945Z,69.43
2018-02-10T16:46:52.418Z,69.27
2018-02-10T16:49:33.801Z,69.21
2018-02-10T16:52:17.727Z,69.10
2018-02-10T16:54:50.259Z,68.96
2018-02-10T16:57:21.955Z,69.08
2018-02-10T16:59:52.984Z,68.80
2018-02-10T17:02:26.988Z,68.17
2018-02-10T17:05:04.741Z,68.22
2018-02-10T17:07:36.911Z,68.15
2018-02-10T17:10:10.707Z,67.98
2018-02-10T17:12:42.729Z,69.13
2018-02-10T17:15:16.471Z,69.74
2018-02-10T17:17:47.198Z,70.60
2018-02-10T17:20:18.496Z,70.74
2018-02-10T17:22:49.563Z,70.99
2018-02-10T17:25:22.420Z,70.46
2018-02-10T17:30:33.646Z,68.83
2018-02-10T17:33:07.142Z,68.54
2018-02-10T17:35:39.813Z,67.85
2018-02-10T17:38:11.090Z,67.17
2018-02-10T17:40:44.358Z,67.72
2018-02-10T17:43:20.837Z,67.79
2018-02-10T17:45:52.054Z,67.77
2018-02-10T17:48:23.274Z,68.15
2018-02-10T17:50:55.149Z,67.87
2018-02-10T17:53:26.766Z,67.67
2018-02-10T17:55:57.338Z,67.78
2018-02-10T17:58:32.741Z,67.71
2018-02-10T18:01:04.532Z,67.62
2018-02-10T18:03:35.955Z,67.40
2018-02-10T18:06:07.660Z,67.18
2018-02-10T18:08:38.831Z,67.99
2018-02-10T18:11:10.775Z,67.95
2018-02-10T18:13:46.891Z,67.50
2018-02-10T18:16:19.069Z,67.36
2018-02-10T18:18:51.589Z,68.20
2018-02-10T18:21:24.922Z,68.34
2018-02-10T18:23:58.776Z,69.51
2018-02-10T18:26:30.060Z,69.45
2018-02-10T18:29:01.726Z,69.87
2018-02-10T18:31:34.359Z,69.91
2018-02-10T18:34:06.652Z,69.58
2018-02-10T18:36:38.362Z,69.83
2018-02-10T18:39:10.866Z,70.75
2018-02-10T18:41:42.344Z,69.98
2018-02-10T18:44:13.542Z,70.62
2018-02-10T18:46:46.109Z,70.92
2018-02-10T18:49:20.030Z,69.74
2018-02-10T18:51:52.052Z,69.67
2018-02-10T18:54:24.230Z,69.60
2018-02-10T18:56:54.922Z,69.39
2018-02-10T18:59:27.542Z,69.00
2018-02-10T19:02:00.154Z,69.21
2018-02-10T19:04:33.514Z,68.15
2018-02-10T19:07:05.992Z,68.62
2018-02-10T19:09:36.776Z,68.46
2018-02-10T19:12:07.734Z,68.54
2018-02-10T19:14:43.149Z,67.94
2018-02-10T19:17:15.554Z,67.49
2018-02-10T19:19:51.889Z,67.33
2018-02-10T19:22:22.664Z,66.22
2018-02-10T19:24:54.952Z,66.42
2018-02-10T19:27:27.887Z,66.78
2018-02-10T19:30:00.669Z,66.06
2018-02-10T19:32:39.510Z,66.58
2018-02-10T19:35:11.228Z,66.59
2018-02-10T19:37:45.734Z,66.62
2018-02-10T19:40:20.478Z,66.85
2018-02-10T19:42:55.367Z,66.82
2018-02-10T19:45:27.305Z,66.64
2018-02-10T19:47:58.377Z,66.18
2018-02-10T19:50:28.869Z,66.79
2018-02-10T19:53:00.655Z,66.20
2018-02-10T19:55:31.813Z,66.54
2018-02-10T19:58:04.684Z,65.98
2018-02-10T20:00:36.726Z,65.72
2018-02-10T20:03:11.713Z,65.66
2018-02-10T20:05:44.398Z,65.41
2018-02-10T20:08:17.608Z,66.20
2018-02-10T20:10:48.605Z,65.95
2018-02-10T20:13:19.433Z,65.64
2018-02-10T20:15:51.613Z,66.19
2018-02-10T20:18:22.263Z,66.30
2018-02-10T20:20:54.093Z,65.99
2018-02-10T20:23:25.538Z,65.93
2018-02-10T20:25:57.341Z,66.18
2018-02-10T20:28:28.269Z,66.52
2018-02-10T20:30:59.125Z,66.03
2018-02-10T20:33:29.897Z,65.84
2018-02-10T20:36:01.629Z,65.88
2018-02-10T20:38:32.352Z,65.17
2018-02-10T20:41:03.030Z,64.98
2018-02-10T20:43:34.457Z,65.58
2018-02-10T20:46:06.350Z,65.22
2018-02-10T20:48:38.425Z,63.94
2018-02-10T20:51:09.635Z,64.34
2018-02-10T20:53:41.633Z,64.26
2018-02-10T20:56:13.111Z,63.77
2018-02-10T20:58:44.203Z,64.97
2018-02-10T21:01:16.301Z,64.02
2018-02-10T21:03:48.013Z,64.18
2018-02-10T21:06:20.688Z,64.14
2018-02-10T21:08:52.579Z,63.65
2018-02-10T21:11:25.046Z,63.08
2018-02-10T21:13:56.263Z,62.91
2018-02-10T21:16:27.558Z,62.34
2018-02-10T21:18:58.471Z,63.32
2018-02-10T21:21:29.460Z,63.44
2018-02-10T21:24:01.673Z,64.27
2018-02-10T21:26:33.376Z,63.22
2018-02-10T21:29:05.227Z,62.23
2018-02-10T21:31:39.263Z,62.89
2018-02-10T21:34:10.323Z,62.25
2018-02-10T21:36:40.875Z,61.16
2018-02-10T21:39:12.485Z,61.46
2018-02-10T21:41:43.425Z,60.51
2018-02-10T21:44:15.336Z,60.66
2018-02-10T21:46:49.290Z,61.10
2018-02-10T21:49:21.370Z,60.32
2018-02-10T21:51:53.138Z,59.67
2018-02-10T21:54:24.549Z,59.48
2018-02-10T21:56:57.253Z,59.46
2018-02-10T21:59:28.998Z,60.10
2018-02-10T22:02:01.433Z,60.24
2018-02-10T22:04:34.241Z,59.21
2018-02-10T22:07:07.016Z,58.56
2018-02-10T22:09:38.438Z,58.11
2018-02-10T22:12:10.146Z,58.81
2018-02-10T22:14:41.321Z,58.17
2018-02-10T22:17:12.304Z,57.20
2018-02-10T22:19:45.249Z,56.49
2018-02-10T22:22:16.209Z,56.81
2018-02-10T22:24:47.177Z,56.31
2018-02-10T22:27:18.597Z,57.17
2018-02-10T22:29:50.453Z,56.57
2018-02-10T22:32:22.466Z,56.91
2018-02-10T22:34:53.531Z,58.60
2018-02-10T22:37:25.114Z,58.22
2018-02-10T22:39:56.646Z,58.31
2018-02-10T22:42:28.491Z,57.47
2018-02-10T22:44:59.818Z,56.38
2018-02-10T22:47:30.959Z,56.94
2018-02-10T22:50:01.400Z,56.60
2018-02-10T22:52:32.605Z,57.29
2018-02-10T22:55:05.303Z,57.44
2018-02-10T22:57:38.679Z,56.51
2018-02-10T23:00:14.236Z,56.78
2018-02-10T23:02:47.982Z,57.27
2018-02-10T23:05:21.414Z,57.50
2018-02-10T23:07:53.351Z,57.46
2018-02-10T23:10:24.452Z,57.31
2018-02-10T23:12:56.098Z,57.12
2018-02-10T23:15:28.047Z,58.30
2018-02-10T23:17:59.515Z,58.37
2018-02-10T23:20:30.462Z,57.05
2018-02-10T23:23:02.302Z,57.35
2018-02-10T23:25:38.197Z,57.10
2018-02-10T23:28:09.231Z,56.06
2018-02-10T23:30:41.557Z,55.80
2018-02-10T23:33:12.914Z,55.81
2018-02-10T23:35:43.826Z,54.87
2018-02-10T23:38:14.794Z,55.58
2018-02-10T23:40:45.659Z,56.17
2018-02-10T23:43:16.716Z,57.81
2018-02-10T23:45:47.612Z,57.39
2018-02-10T23:48:19.622Z,56.80
2018-02-10T23:50:50.828Z,57.13
2018-02-10T23:53:22.008Z,56.94
2018-02-10T23:55:52.612Z,57.60
2018-02-10T23:58:24.034Z,57.25
